createdAt,value
2018-07-05T00:01:53.730Z,16.52
2018-07-05T00:05:09.132Z,16.53
2018-07-05T00:08:30.590Z,16.57
2018-07-05T00:11:52.244Z,16.54
2018-07-05T00:15:13.658Z,16.53
2018-07-05T00:18:35.124Z,16.56
2018-07-05T00:21:56.615Z,16.57
2018-07-05T00:25:18.004Z,16.57
2018-07-05T00:28:40.577Z,16.52
2018-07-05T00:32:02.033Z,16.57
2018-07-05T00:35:23.466Z,16.47
2018-07-05T00:38:44.764Z,16.47
2018-07-05T00:42:00.154Z,16.47
2018-07-05T00:45:21.673Z,16.44
2018-07-05T00:48:43.068Z,16.35
2018-07-05T00:52:04.686Z,16.34
2018-07-05T00:55:26.148Z,16.32
2018-07-05T00:58:47.375Z,16.30
2018-07-05T01:02:08.885Z,16.33
2018-07-05T01:05:30.228Z,16.30
2018-07-05T01:08:51.704Z,16.29
2018-07-05T01:12:13.115Z,16.28
2018-07-05T01:15:34.673Z,16.34
2018-07-05T01:18:56.004Z,16.25
2018-07-05T01:22:17.689Z,16.26
2018-07-05T01:25:38.965Z,16.22
2018-07-05T01:29:00.433Z,16.28
2018-07-05T01:32:15.809Z,16.27
2018-07-05T01:35:37.868Z,16.26
2018-07-05T01:38:59.296Z,16.28
2018-07-05T01:42:21.047Z,16.28
2018-07-05T01:45:42.557Z,16.24
2018-07-05T01:49:03.892Z,16.16
2018-07-05T01:52:19.359Z,16.13
2018-07-05T01:55:40.825Z,16.16
2018-07-05T01:59:02.181Z,16.15
2018-07-05T02:02:23.615Z,16.14
2018-07-05T02:05:45.064Z,16.13
2018-07-05T02:09:06.519Z,16.13
2018-07-05T02:12:27.955Z,16.09
2018-07-05T02:15:49.477Z,16.07
2018-07-05T02:19:11.236Z,16.01
2018-07-05T02:22:32.525Z,16.02
2018-07-05T02:25:54.017Z,16.00
2018-07-05T02:29:15.474Z,16.01
2018-07-05T02:32:37.011Z,16.03
2018-07-05T02:35:58.564Z,16.02
2018-07-05T02:39:25.081Z,16.03
2018-07-05T02:42:46.560Z,16.03
2018-07-05T02:46:08.096Z,16.05
2018-07-05T02:49:29.552Z,16.02
2018-07-05T02:52:51.297Z,16.01
2018-07-05T02:56:12.572Z,15.94
2018-07-05T02:59:34.056Z,15.93
2018-07-05T03:02:55.420Z,15.97
2018-07-05T03:06:17.025Z,15.97
2018-07-05T03:09:38.609Z,15.97
2018-07-05T03:13:00.057Z,15.96
2018-07-05T03:16:21.701Z,16.02
2018-07-05T03:19:43.082Z,16.00
2018-07-05T03:23:04.697Z,15.98
2018-07-05T03:26:26.336Z,15.93
2018-07-05T03:29:47.849Z,15.98
2018-07-05T03:33:03.114Z,15.96
2018-07-05T03:36:24.453Z,15.99
2018-07-05T03:39:45.896Z,15.90
2018-07-05T03:43:07.492Z,15.84
2018-07-05T03:46:29.036Z,15.83
2018-07-05T03:49:50.438Z,15.75
2018-07-05T03:53:12.096Z,15.67
2018-07-05T03:56:33.354Z,15.65
2018-07-05T03:59:48.828Z,15.61
2018-07-05T04:03:10.127Z,15.58
2018-07-05T04:06:31.510Z,15.50
2018-07-05T04:09:52.826Z,15.41
2018-07-05T04:13:14.326Z,15.38
2018-07-05T04:16:35.815Z,15.41
2018-07-05T04:19:57.231Z,15.49
2018-07-05T04:23:18.686Z,15.47
2018-07-05T04:26:40.014Z,15.51
2018-07-05T04:30:01.416Z,15.56
2018-07-05T04:33:22.805Z,15.68
2018-07-05T04:36:44.161Z,15.77
2018-07-05T04:40:05.488Z,15.76
2018-07-05T04:43:20.960Z,15.77
2018-07-05T04:46:42.481Z,15.76
2018-07-05T04:50:03.889Z,15.84
2018-07-05T04:53:25.115Z,15.89
2018-07-05T04:56:46.541Z,15.86
2018-07-05T05:00:07.857Z,15.83
2018-07-05T05:03:29.206Z,15.79
2018-07-05T05:06:50.564Z,15.75
2018-07-05T05:10:12.035Z,15.59
2018-07-05T05:13:33.649Z,15.48
2018-07-05T05:16:55.246Z,15.53
2018-07-05T05:20:16.769Z,15.50
2018-07-05T05:23:38.305Z,15.47
2018-07-05T05:26:59.865Z,15.37
2018-07-05T05:30:21.279Z,15.33
2018-07-05T05:33:42.742Z,15.45
2018-07-05T05:37:04.264Z,15.52
2018-07-05T05:40:25.598Z,15.64
2018-07-05T05:43:46.985Z,15.78
2018-07-05T05:47:08.552Z,15.72
2018-07-05T05:50:30.125Z,15.82
2018-07-05T05:53:51.712Z,15.86
2018-07-05T05:57:13.219Z,15.92
2018-07-05T06:00:34.698Z,16.01
2018-07-05T06:03:56.785Z,16.00
2018-07-05T06:07:18.171Z,16.11
2018-07-05T06:10:39.477Z,16.24
2018-07-05T06:14:00.888Z,16.23
2018-07-05T06:17:22.336Z,16.18
2018-07-05T06:20:43.631Z,16.15
2018-07-05T06:24:04.849Z,16.15
2018-07-05T06:27:26.242Z,16.14
2018-07-05T06:30:47.886Z,15.96
2018-07-05T06:34:09.267Z,15.96
2018-07-05T06:37:31.670Z,16.05
2018-07-05T06:40:53.137Z,15.86
2018-07-05T06:44:14.654Z,15.92
2018-07-05T06:47:36.324Z,15.98
2018-07-05T06:50:57.694Z,16.16
2018-07-05T06:54:19.118Z,16.29
2018-07-05T06:57:40.665Z,16.37
2018-07-05T07:01:02.107Z,16.60
2018-07-05T07:04:23.480Z,16.81
2018-07-05T07:07:44.925Z,16.93
2018-07-05T07:11:06.380Z,16.93
2018-07-05T07:14:27.811Z,16.94
2018-07-05T07:17:43.200Z,16.82
2018-07-05T07:21:04.465Z,16.71
2018-07-05T07:24:25.797Z,16.52
2018-07-05T07:27:47.323Z,16.53
2018-07-05T07:31:08.778Z,16.54
2018-07-05T07:34:30.288Z,16.66
2018-07-05T07:37:51.816Z,16.93
2018-07-05T07:41:13.097Z,17.25
2018-07-05T07:44:16.918Z,17.38
2018-07-05T07:47:19.677Z,17.28
2018-07-05T07:50:22.433Z,17.05
2018-07-05T07:53:25.200Z,16.90
2018-07-05T07:56:27.994Z,16.74
2018-07-05T07:59:30.755Z,16.60
2018-07-05T08:02:33.509Z,16.57
2018-07-05T08:05:36.286Z,16.57
2018-07-05T08:08:39.035Z,16.60
2018-07-05T08:11:41.827Z,16.81
2018-07-05T08:14:44.640Z,17.05
2018-07-05T08:17:47.382Z,17.25
2018-07-05T08:20:50.472Z,17.55
2018-07-05T08:23:53.205Z,17.74
2018-07-05T08:26:55.975Z,17.80
2018-07-05T08:29:58.727Z,17.91
2018-07-05T08:33:01.465Z,17.70
2018-07-05T08:36:04.293Z,17.75
2018-07-05T08:39:07.210Z,17.59
2018-07-05T08:42:09.953Z,17.50
2018-07-05T08:45:12.715Z,17.24
2018-07-05T08:48:15.499Z,17.06
2018-07-05T08:51:18.248Z,16.92
2018-07-05T08:54:21.003Z,17.01
2018-07-05T08:57:23.737Z,17.26
2018-07-05T09:00:26.490Z,17.49
2018-07-05T09:03:29.265Z,17.87
2018-07-05T09:06:32.105Z,18.14
2018-07-05T09:09:34.823Z,18.41
2018-07-05T09:12:37.583Z,18.54
2018-07-05T09:15:40.308Z,18.37
2018-07-05T09:18:43.073Z,18.03
2018-07-05T09:21:45.882Z,17.74
2018-07-05T09:24:48.610Z,17.54
2018-07-05T09:27:51.437Z,17.43
2018-07-05T09:30:54.312Z,17.55
2018-07-05T09:33:57.062Z,17.48
2018-07-05T09:36:59.859Z,17.63
2018-07-05T09:40:02.600Z,17.74
2018-07-05T09:43:05.341Z,17.77
2018-07-05T09:46:08.344Z,17.76
2018-07-05T09:49:11.165Z,17.61
2018-07-05T09:52:13.927Z,17.67
2018-07-05T09:55:16.655Z,18.03
2018-07-05T09:58:19.427Z,18.20
2018-07-05T10:01:22.148Z,18.44
2018-07-05T10:04:24.940Z,18.11
2018-07-05T10:07:27.680Z,17.89
2018-07-05T10:10:30.424Z,17.87
2018-07-05T10:13:33.334Z,17.96
2018-07-05T10:16:35.945Z,18.16
2018-07-05T10:19:38.708Z,18.17
2018-07-05T10:22:41.437Z,18.21
2018-07-05T10:25:44.204Z,18.12
2018-07-05T10:29:05.611Z,17.96
2018-07-05T10:32:26.975Z,18.02
2018-07-05T10:35:29.844Z,18.36
2018-07-05T10:38:32.614Z,18.59
2018-07-05T10:41:54.003Z,18.48
2018-07-05T10:45:16.485Z,18.35
2018-07-05T10:48:38.107Z,18.07
2018-07-05T10:51:59.577Z,18.14
2018-07-05T10:55:21.415Z,18.36
2018-07-05T10:58:42.548Z,18.51
2018-07-05T11:02:04.007Z,18.60
2018-07-05T11:05:25.280Z,18.67
2018-07-05T11:08:46.670Z,18.57
2018-07-05T11:12:08.089Z,18.68
2018-07-05T11:15:23.526Z,18.96
2018-07-05T11:18:44.998Z,18.96
2018-07-05T11:22:06.387Z,18.73
2018-07-05T11:25:27.670Z,18.65
2018-07-05T11:28:48.964Z,18.49
2018-07-05T11:32:10.501Z,18.61
2018-07-05T11:35:31.870Z,18.50
2018-07-05T11:38:53.345Z,18.40
2018-07-05T11:42:14.622Z,18.19
2018-07-05T11:45:36.181Z,18.06
2018-07-05T11:48:57.685Z,18.02
2018-07-05T11:52:19.101Z,18.17
2018-07-05T11:55:40.657Z,18.30
2018-07-05T11:59:02.018Z,18.46
2018-07-05T12:02:23.613Z,18.22
2018-07-05T12:05:44.850Z,18.15
2018-07-05T12:09:07.696Z,18.09
2018-07-05T12:12:29.338Z,18.27
2018-07-05T12:15:51.065Z,18.47
2018-07-05T12:19:12.357Z,18.59
2018-07-05T12:22:33.903Z,18.54
2018-07-05T12:25:55.356Z,18.49
2018-07-05T12:29:16.795Z,18.54
2018-07-05T12:32:38.140Z,18.42
2018-07-05T12:35:59.602Z,18.49
2018-07-05T12:39:21.104Z,18.47
2018-07-05T12:42:42.497Z,18.33
2018-07-05T12:46:03.921Z,18.43
2018-07-05T12:49:25.371Z,18.67
2018-07-05T12:52:46.780Z,18.84
2018-07-05T12:56:08.134Z,18.92
2018-07-05T12:59:29.417Z,18.91
2018-07-05T13:02:50.691Z,18.80
2018-07-05T13:06:12.140Z,18.82
2018-07-05T13:09:33.598Z,18.82
2018-07-05T13:12:55.113Z,18.68
2018-07-05T13:16:16.480Z,18.46
2018-07-05T13:19:37.879Z,18.38
2018-07-05T13:22:59.445Z,18.06
2018-07-05T13:26:21.030Z,18.10
2018-07-05T13:29:42.438Z,18.04
2018-07-05T13:33:04.005Z,18.08
2018-07-05T13:36:25.542Z,18.23
2018-07-05T13:39:46.771Z,18.27
2018-07-05T13:43:08.342Z,18.20
2018-07-05T13:46:29.807Z,18.28
2018-07-05T13:49:51.233Z,18.40
2018-07-05T13:53:12.546Z,18.42
2018-07-05T13:56:33.950Z,18.52
2018-07-05T13:59:55.411Z,18.88
2018-07-05T14:03:16.847Z,19.19
2018-07-05T14:06:38.930Z,19.49
2018-07-05T14:10:00.499Z,19.16
2018-07-05T14:13:21.929Z,19.08
2018-07-05T14:16:43.284Z,19.05
2018-07-05T14:20:04.686Z,19.14
2018-07-05T14:23:26.152Z,19.19
2018-07-05T14:26:47.704Z,19.28
2018-07-05T14:30:08.984Z,19.43
2018-07-05T14:33:30.398Z,19.51
2018-07-05T14:36:51.775Z,19.38
2018-07-05T14:40:13.300Z,19.08
2018-07-05T14:43:34.826Z,19.22
2018-07-05T14:46:56.494Z,19.01
2018-07-05T14:50:17.827Z,18.66
2018-07-05T14:53:39.380Z,18.57
2018-07-05T14:57:00.761Z,18.64
2018-07-05T15:00:22.325Z,18.99
2018-07-05T15:03:43.709Z,19.18
2018-07-05T15:07:05.352Z,19.21
2018-07-05T15:10:26.806Z,19.02
2018-07-05T15:13:49.038Z,18.92
2018-07-05T15:17:10.571Z,18.45
2018-07-05T15:20:31.950Z,18.37
2018-07-05T15:23:53.301Z,18.25
2018-07-05T15:27:14.749Z,18.31
2018-07-05T15:30:36.037Z,18.30
2018-07-05T15:33:57.496Z,18.18
2018-07-05T15:37:18.840Z,18.01
2018-07-05T15:40:40.334Z,17.93
2018-07-05T15:44:01.841Z,18.08
2018-07-05T15:47:23.433Z,18.26
2018-07-05T15:50:44.963Z,18.23
2018-07-05T15:54:06.570Z,18.10
2018-07-05T15:57:27.958Z,18.03
2018-07-05T16:00:49.471Z,18.03
2018-07-05T16:04:11.053Z,18.00
2018-07-05T16:07:32.538Z,18.07
2018-07-05T16:10:53.993Z,17.82
2018-07-05T16:14:15.328Z,17.76
2018-07-05T16:17:36.902Z,17.66
2018-07-05T16:20:58.573Z,17.66
2018-07-05T16:24:19.961Z,17.57
2018-07-05T16:27:41.364Z,17.58
2018-07-05T16:31:02.884Z,17.52
2018-07-05T16:34:24.422Z,17.39
2018-07-05T16:37:45.979Z,17.36
2018-07-05T16:41:07.385Z,17.42
2018-07-05T16:44:28.760Z,17.54
2018-07-05T16:47:50.212Z,17.58
2018-07-05T16:51:11.750Z,17.43
2018-07-05T16:54:33.071Z,17.23
2018-07-05T16:57:54.421Z,17.19
2018-07-05T17:01:16.037Z,17.22
2018-07-05T17:04:37.571Z,17.21
2018-07-05T17:07:59.187Z,17.35
2018-07-05T17:11:20.757Z,17.43
2018-07-05T17:14:42.179Z,17.34
2018-07-05T17:18:03.585Z,17.46
2018-07-05T17:21:24.939Z,17.49
2018-07-05T17:24:46.348Z,17.51
2018-07-05T17:28:07.782Z,17.53
2018-07-05T17:31:29.310Z,17.48
2018-07-05T17:34:50.741Z,17.50
2018-07-05T17:38:12.132Z,17.58
2018-07-05T17:41:33.513Z,17.64
2018-07-05T17:44:55.144Z,17.53
2018-07-05T17:48:16.544Z,17.44
2018-07-05T17:51:38.098Z,17.19
2018-07-05T17:54:59.416Z,16.99
2018-07-05T17:58:20.940Z,16.95
2018-07-05T18:01:42.445Z,16.94
2018-07-05T18:05:03.801Z,16.87
2018-07-05T18:08:25.081Z,16.72
2018-07-05T18:11:46.553Z,16.64
2018-07-05T18:15:07.919Z,16.55
2018-07-05T18:18:29.214Z,16.44
2018-07-05T18:21:50.581Z,16.50
2018-07-05T18:25:12.053Z,16.39
2018-07-05T18:28:33.354Z,16.37
2018-07-05T18:31:54.883Z,16.30
2018-07-05T18:35:16.431Z,16.31
2018-07-05T18:38:31.787Z,16.26
2018-07-05T18:41:53.176Z,16.17
2018-07-05T18:45:14.400Z,16.12
2018-07-05T18:48:35.922Z,16.09
2018-07-05T18:51:57.411Z,16.07
2018-07-05T18:55:18.937Z,16.12
2018-07-05T18:58:40.427Z,16.10
2018-07-05T19:02:01.968Z,16.06
2018-07-05T19:05:23.421Z,15.98
2018-07-05T19:08:45.167Z,15.94
2018-07-05T19:12:06.731Z,16.00
2018-07-05T19:15:28.207Z,15.97
2018-07-05T19:18:49.576Z,15.95
2018-07-05T19:22:10.874Z,15.97
2018-07-05T19:25:32.464Z,15.93
2018-07-05T19:28:54.139Z,15.95
2018-07-05T19:32:15.499Z,15.93
2018-07-05T19:35:37.082Z,16.02
2018-07-05T19:38:58.424Z,15.99
2018-07-05T19:42:19.970Z,15.98
2018-07-05T19:45:41.556Z,16.02
2018-07-05T19:49:02.912Z,15.99
2018-07-05T19:52:24.205Z,15.94
2018-07-05T19:55:45.466Z,15.92
2018-07-05T19:59:06.918Z,15.94
2018-07-05T20:02:28.688Z,15.90
2018-07-05T20:05:50.087Z,15.92
2018-07-05T20:09:11.563Z,15.96
2018-07-05T20:12:32.844Z,15.89
2018-07-05T20:15:54.269Z,15.89
2018-07-05T20:19:15.841Z,15.89
2018-07-05T20:22:37.573Z,15.81
2018-07-05T20:25:59.009Z,15.76
2018-07-05T20:29:20.520Z,15.82
2018-07-05T20:32:42.095Z,15.88
2018-07-05T20:36:04.314Z,15.85
2018-07-05T20:39:25.834Z,15.84
2018-07-05T20:42:47.341Z,15.80
2018-07-05T20:46:08.777Z,15.86
2018-07-05T20:49:30.419Z,15.79
2018-07-05T20:52:51.813Z,15.77
2018-07-05T20:56:13.410Z,15.79
2018-07-05T20:59:35.175Z,15.86
2018-07-05T21:02:56.728Z,15.80
2018-07-05T21:06:18.627Z,15.71
2018-07-05T21:09:41.203Z,15.74
2018-07-05T21:13:03.002Z,15.74
2018-07-05T21:16:24.503Z,15.76
2018-07-05T21:19:40.075Z,15.78
2018-07-05T21:23:02.636Z,15.80
2018-07-05T21:26:24.367Z,15.82
2018-07-05T21:29:46.364Z,15.81
2018-07-05T21:33:07.922Z,15.81
2018-07-05T21:36:29.348Z,15.81
2018-07-05T21:39:50.839Z,15.74
2018-07-05T21:43:12.223Z,15.73
2018-07-05T21:46:33.746Z,15.65
2018-07-05T21:49:55.278Z,15.62
2018-07-05T21:53:16.759Z,15.63
2018-07-05T21:56:37.989Z,15.68
2018-07-05T21:59:59.259Z,15.73
2018-07-05T22:03:20.792Z,15.71
2018-07-05T22:06:42.297Z,15.68
2018-07-05T22:10:03.670Z,15.67
2018-07-05T22:13:24.965Z,15.74
2018-07-05T22:16:51.785Z,15.69
2018-07-05T22:20:18.644Z,15.70
2018-07-05T22:23:45.531Z,15.72
2018-07-05T22:27:10.300Z,15.71
2018-07-05T22:30:37.195Z,15.64
2018-07-05T22:33:58.717Z,15.54
2018-07-05T22:37:20.316Z,15.54
2018-07-05T22:40:41.780Z,15.59
2018-07-05T22:44:03.386Z,15.51
2018-07-05T22:47:24.721Z,15.55
2018-07-05T22:50:46.107Z,15.57
2018-07-05T22:54:07.311Z,15.50
2018-07-05T22:57:28.788Z,15.40
2018-07-05T23:00:50.041Z,15.40
2018-07-05T23:04:05.321Z,15.41
2018-07-05T23:07:26.949Z,15.45
2018-07-05T23:10:48.603Z,15.48
2018-07-05T23:14:10.150Z,15.44
2018-07-05T23:17:31.606Z,15.43
2018-07-05T23:20:52.993Z,15.43
2018-07-05T23:24:14.473Z,15.36
2018-07-05T23:27:35.925Z,15.38
2018-07-05T23:30:57.402Z,15.35
2018-07-05T23:34:18.867Z,15.46
2018-07-05T23:37:40.239Z,15.48
2018-07-05T23:41:01.654Z,15.36
2018-07-05T23:44:23.350Z,15.32
2018-07-05T23:47:45.050Z,15.35
2018-07-05T23:51:06.561Z,15.38
2018-07-05T23:54:28.102Z,15.41
2018-07-05T23:57:49.865Z,15.37
